createdAt,value
2023-11-02T00:02:22.601Z,3.40
2023-11-02T00:04:50.840Z,3.43
2023-11-02T00:07:19.502Z,3.70
2023-11-02T00:09:50.036Z,4.13
2023-11-02T00:12:20.154Z,3.30
2023-11-02T00:14:54.498Z,4.17
2023-11-02T00:17:39.642Z,4.23
2023-11-02T00:20:12.478Z,4.03
2023-11-02T00:22:44.932Z,3.60
2023-11-02T00:25:23.402Z,3.90
2023-11-02T00:27:50.456Z,3.27
2023-11-02T00:30:17.397Z,3.93
2023-11-02T00:32:45.391Z,3.60
2023-11-02T00:35:13.589Z,3.47
2023-11-02T00:37:40.683Z,2.93
2023-11-02T00:40:08.497Z,2.93
2023-11-02T00:42:35.395Z,3.00
2023-11-02T00:45:02.988Z,2.63
2023-11-02T00:47:29.950Z,2.20
2023-11-02T00:49:59.012Z,2.40
2023-11-02T00:52:28.031Z,2.10
2023-11-02T00:55:01.826Z,1.93
2023-11-02T00:57:40.457Z,1.93
2023-11-02T01:00:08.278Z,2.77
2023-11-02T01:02:36.909Z,2.80
2023-11-02T01:05:06.003Z,2.53
2023-11-02T01:07:35.121Z,3.13
2023-11-02T01:10:05.485Z,2.30
2023-11-02T01:12:36.505Z,2.50
2023-11-02T01:15:08.323Z,2.80
2023-11-02T01:17:40.798Z,2.37
2023-11-02T01:20:10.061Z,3.30
2023-11-02T01:22:56.522Z,3.50
2023-11-02T01:25:27.361Z,2.77
2023-11-02T01:28:00.131Z,3.57
2023-11-02T01:30:29.083Z,2.87
2023-11-02T01:32:56.436Z,2.70
2023-11-02T01:35:45.094Z,2.00
2023-11-02T01:38:15.984Z,2.10
2023-11-02T01:40:48.446Z,2.50
2023-11-02T01:43:25.361Z,2.20
2023-11-02T01:45:54.166Z,2.27
2023-11-02T01:48:28.925Z,3.40
2023-11-02T01:51:09.552Z,3.37
2023-11-02T01:53:56.314Z,3.37
2023-11-02T01:56:44.253Z,2.97
2023-11-02T01:59:11.659Z,2.53
2023-11-02T02:02:02.608Z,2.77
2023-11-02T02:04:50.373Z,2.50
2023-11-02T02:07:29.204Z,3.57
2023-11-02T02:10:09.141Z,3.37
2023-11-02T02:13:24.965Z,3.10
2023-11-02T02:16:10.295Z,2.67
2023-11-02T02:18:47.407Z,2.60
2023-11-02T02:21:30.327Z,2.33
2023-11-02T02:24:26.166Z,2.47
2023-11-02T02:27:11.781Z,2.17
2023-11-02T02:29:57.459Z,2.90
2023-11-02T02:33:07.802Z,2.17
2023-11-02T02:35:39.781Z,2.67
2023-11-02T02:38:12.399Z,2.80
2023-11-02T02:40:57.073Z,2.27
2023-11-02T02:43:24.233Z,2.10
2023-11-02T02:45:51.788Z,2.00
2023-11-02T02:48:19.878Z,2.17
2023-11-02T02:50:51.793Z,2.87
2023-11-02T02:53:21.319Z,2.50
2023-11-02T02:55:50.679Z,2.30
2023-11-02T02:58:22.454Z,2.07
2023-11-02T03:00:50.845Z,2.30
2023-11-02T03:03:22.155Z,2.20
2023-11-02T03:05:49.487Z,2.33
2023-11-02T03:08:17.174Z,2.57
2023-11-02T03:10:46.934Z,2.17
2023-11-02T03:13:15.844Z,2.37
2023-11-02T03:15:44.146Z,2.37
2023-11-02T03:18:13.821Z,2.57
2023-11-02T03:20:44.381Z,2.20
2023-11-02T03:23:35.789Z,2.63
2023-11-02T03:26:37.132Z,2.40
2023-11-02T03:29:18.689Z,2.27
2023-11-02T03:32:14.995Z,2.30
2023-11-02T03:34:58.686Z,2.57
2023-11-02T03:37:37.053Z,2.40
2023-11-02T03:40:13.240Z,2.67
2023-11-02T03:43:02.424Z,2.43
2023-11-02T03:45:32.465Z,2.50
2023-11-02T03:48:17.652Z,2.77
2023-11-02T03:51:20.085Z,2.97
2023-11-02T03:53:58.636Z,2.73
2023-11-02T03:56:52.800Z,2.70
2023-11-02T03:59:31.496Z,3.23
2023-11-02T04:02:11.854Z,2.90
2023-11-02T04:04:49.529Z,3.07
2023-11-02T04:07:40.467Z,2.40
2023-11-02T04:10:09.426Z,3.30
2023-11-02T04:13:05.620Z,3.77
2023-11-02T04:15:32.867Z,10.80
2023-11-02T04:18:00.740Z,6.63
2023-11-02T04:20:28.383Z,3.37
2023-11-02T04:22:55.947Z,2.70
2023-11-02T04:25:23.222Z,2.47
2023-11-02T04:27:50.320Z,4.70
2023-11-02T04:30:17.344Z,2.67
2023-11-02T04:32:44.534Z,3.40
2023-11-02T04:35:12.310Z,2.90
2023-11-02T04:37:39.769Z,2.00
2023-11-02T04:40:08.850Z,2.20
2023-11-02T04:42:36.184Z,2.00
2023-11-02T04:45:03.972Z,2.20
2023-11-02T04:47:31.043Z,2.07
2023-11-02T04:50:00.263Z,2.10
2023-11-02T04:52:36.879Z,2.17
2023-11-02T04:55:04.268Z,2.00
2023-11-02T04:57:31.182Z,1.97
2023-11-02T05:00:01.502Z,2.33
2023-11-02T05:02:28.550Z,15.70
2023-11-02T05:04:55.474Z,5.80
2023-11-02T05:07:22.359Z,7.57
2023-11-02T05:09:49.263Z,4.60
2023-11-02T05:12:16.175Z,2.43
2023-11-02T05:14:44.724Z,2.60
2023-11-02T05:17:11.653Z,2.50
2023-11-02T05:19:39.192Z,2.30
2023-11-02T05:22:07.057Z,2.67
2023-11-02T05:24:34.072Z,2.90
2023-11-02T05:27:01.459Z,2.30
2023-11-02T05:29:28.666Z,2.40
2023-11-02T05:31:55.538Z,2.30
2023-11-02T05:34:22.536Z,2.77
2023-11-02T05:36:49.957Z,2.30
2023-11-02T05:39:16.982Z,3.07
2023-11-02T05:41:43.825Z,2.70
2023-11-02T05:44:11.299Z,2.20
2023-11-02T05:46:38.164Z,2.20
2023-11-02T05:49:05.152Z,1.80
2023-11-02T05:51:32.035Z,1.90
2023-11-02T05:53:58.992Z,1.70
2023-11-02T05:56:26.006Z,2.10
2023-11-02T05:58:55.128Z,1.13
2023-11-02T06:01:21.987Z,1.13
2023-11-02T06:03:48.881Z,1.30
2023-11-02T06:06:15.867Z,1.40
2023-11-02T06:08:43.272Z,1.80
2023-11-02T06:11:10.504Z,1.90
2023-11-02T06:13:37.335Z,1.20
2023-11-02T06:16:05.200Z,1.33
2023-11-02T06:18:32.225Z,0.90
2023-11-02T06:20:59.125Z,0.90
2023-11-02T06:23:25.925Z,1.30
2023-11-02T06:25:52.929Z,1.50
2023-11-02T06:28:20.908Z,1.43
2023-11-02T06:30:47.987Z,1.37
2023-11-02T06:33:39.160Z,1.20
2023-11-02T06:36:06.877Z,1.20
2023-11-02T06:38:35.211Z,1.00
2023-11-02T06:41:03.175Z,1.13
2023-11-02T06:43:30.224Z,1.10
2023-11-02T06:45:57.048Z,1.13
2023-11-02T06:48:23.917Z,1.50
2023-11-02T06:50:52.173Z,1.43
2023-11-02T06:53:19.258Z,1.07
2023-11-02T06:55:46.219Z,1.07
2023-11-02T06:58:13.228Z,1.10
2023-11-02T07:00:40.283Z,1.20
2023-11-02T07:03:07.296Z,1.00
2023-11-02T07:05:34.414Z,1.50
2023-11-02T07:08:01.405Z,1.07
2023-11-02T07:10:28.539Z,1.50
2023-11-02T07:12:55.755Z,1.50
2023-11-02T07:15:24.282Z,1.77
2023-11-02T07:17:51.946Z,1.50
2023-11-02T07:20:19.961Z,1.20
2023-11-02T07:22:47.246Z,3.60
2023-11-02T07:25:14.607Z,2.20
2023-11-02T07:27:43.688Z,2.70
2023-11-02T07:30:16.678Z,2.87
2023-11-02T07:32:44.418Z,2.23
2023-11-02T07:35:14.616Z,2.10
2023-11-02T07:37:42.072Z,2.67
2023-11-02T07:40:10.027Z,2.10
2023-11-02T07:42:40.624Z,2.60
2023-11-02T07:45:08.487Z,3.17
2023-11-02T07:47:35.663Z,3.23
2023-11-02T07:50:04.370Z,9.07
2023-11-02T07:52:32.213Z,17.87
2023-11-02T07:54:59.515Z,7.13
2023-11-02T07:57:28.916Z,2.80
2023-11-02T07:59:56.451Z,1.77
2023-11-02T08:02:23.756Z,1.70
2023-11-02T08:04:51.011Z,2.10
2023-11-02T08:07:18.531Z,1.80
2023-11-02T08:09:49.296Z,2.50
2023-11-02T08:12:17.828Z,2.50
2023-11-02T08:14:45.412Z,2.90
2023-11-02T08:17:19.043Z,2.97
2023-11-02T08:19:48.013Z,2.30
2023-11-02T08:22:17.345Z,2.27
2023-11-02T08:24:48.724Z,2.57
2023-11-02T08:27:20.021Z,2.43
2023-11-02T08:29:51.171Z,2.40
2023-11-02T08:32:20.447Z,2.50
2023-11-02T08:34:48.032Z,3.10
2023-11-02T08:37:15.247Z,3.20
2023-11-02T08:39:42.666Z,2.73
2023-11-02T08:42:15.889Z,2.60
2023-11-02T08:44:46.170Z,3.00
2023-11-02T08:47:16.246Z,2.20
2023-11-02T08:49:44.400Z,3.20
2023-11-02T08:52:12.215Z,5.30
2023-11-02T08:54:39.603Z,6.27
2023-11-02T08:57:07.582Z,5.83
2023-11-02T08:59:34.630Z,5.27
2023-11-02T09:02:02.556Z,3.43
2023-11-02T09:04:30.627Z,2.67
2023-11-02T09:06:58.149Z,2.73
2023-11-02T09:09:25.374Z,2.40
2023-11-02T09:11:54.248Z,2.60
2023-11-02T09:14:21.211Z,2.50
2023-11-02T09:16:48.534Z,2.20
2023-11-02T09:19:15.484Z,2.80
2023-11-02T09:21:43.810Z,3.20
2023-11-02T09:24:11.188Z,2.63
2023-11-02T09:26:42.601Z,2.83
2023-11-02T09:29:09.588Z,2.80
2023-11-02T09:31:36.550Z,2.93
2023-11-02T09:34:04.052Z,2.20
2023-11-02T09:36:31.786Z,2.23
2023-11-02T09:39:04.268Z,2.53
2023-11-02T09:41:31.420Z,2.77
2023-11-02T09:43:59.861Z,3.00
2023-11-02T09:46:26.918Z,3.03
2023-11-02T09:48:54.182Z,2.60
2023-11-02T09:51:21.344Z,2.77
2023-11-02T09:53:48.901Z,3.27
2023-11-02T09:56:16.118Z,6.47
2023-11-02T09:58:44.671Z,3.40
2023-11-02T10:01:13.288Z,2.63
2023-11-02T10:03:40.455Z,2.63
2023-11-02T10:06:08.986Z,2.63
2023-11-02T10:08:36.497Z,3.07
2023-11-02T10:11:12.395Z,3.20
2023-11-02T10:13:39.578Z,3.10
2023-11-02T10:16:06.881Z,5.87
2023-11-02T10:18:33.999Z,3.37
2023-11-02T10:21:06.495Z,3.13
2023-11-02T10:23:55.402Z,3.27
2023-11-02T10:26:28.116Z,3.27
2023-11-02T10:28:55.325Z,3.07
2023-11-02T10:31:28.937Z,3.57
2023-11-02T10:33:55.944Z,3.53
2023-11-02T10:36:22.951Z,3.10
2023-11-02T10:38:50.983Z,3.57
2023-11-02T10:41:19.529Z,3.20
2023-11-02T10:43:48.218Z,2.80
2023-11-02T10:46:17.126Z,2.50
2023-11-02T10:48:47.743Z,3.57
2023-11-02T10:51:24.226Z,3.20
2023-11-02T10:54:07.441Z,3.07
2023-11-02T10:56:43.758Z,3.60
2023-11-02T10:59:11.814Z,4.27
2023-11-02T11:01:39.313Z,3.93
2023-11-02T11:04:12.432Z,3.60
2023-11-02T11:06:45.243Z,4.43
2023-11-02T11:09:17.489Z,4.43
2023-11-02T11:11:49.632Z,4.10
2023-11-02T11:14:17.193Z,4.90
2023-11-02T11:16:46.083Z,3.73
2023-11-02T11:19:13.205Z,3.80
2023-11-02T11:21:42.796Z,4.17
2023-11-02T11:24:19.708Z,3.20
2023-11-02T11:26:56.622Z,2.83
2023-11-02T11:29:42.788Z,1.30
2023-11-02T11:32:25.566Z,2.63
2023-11-02T11:34:55.590Z,2.10
2023-11-02T11:37:38.411Z,1.53
2023-11-02T11:40:08.319Z,1.43
2023-11-02T11:42:54.245Z,1.33
2023-11-02T11:46:06.878Z,1.67
2023-11-02T11:48:42.315Z,1.37
2023-11-02T11:51:41.260Z,1.27
2023-11-02T11:54:14.620Z,1.20
2023-11-02T11:56:42.320Z,1.10
2023-11-02T11:59:11.481Z,0.90
2023-11-02T12:01:39.505Z,1.00
2023-11-02T12:04:09.498Z,0.90
2023-11-02T12:06:45.301Z,1.23
2023-11-02T12:09:14.984Z,1.00
2023-11-02T12:11:42.822Z,1.60
2023-11-02T12:14:16.803Z,2.07
2023-11-02T12:16:43.844Z,1.90
2023-11-02T12:19:11.895Z,1.87
2023-11-02T12:21:42.240Z,1.20
2023-11-02T12:24:13.722Z,1.60
2023-11-02T12:26:41.984Z,1.90
2023-11-02T12:29:10.636Z,1.23
2023-11-02T12:31:43.056Z,1.17
2023-11-02T12:34:13.880Z,1.40
2023-11-02T12:36:43.658Z,1.20
2023-11-02T12:39:15.505Z,1.30
2023-11-02T12:41:43.531Z,1.40
2023-11-02T12:44:12.411Z,1.60
2023-11-02T12:46:42.100Z,1.60
2023-11-02T12:49:12.497Z,1.43
2023-11-02T12:51:40.041Z,1.50
2023-11-02T12:54:11.742Z,1.60
2023-11-02T12:56:39.312Z,1.67
2023-11-02T12:59:08.171Z,1.53
2023-11-02T13:01:54.709Z,1.33
2023-11-02T13:04:29.918Z,1.50
2023-11-02T13:07:00.346Z,1.10
2023-11-02T13:09:28.404Z,1.30
2023-11-02T13:11:56.617Z,1.40
2023-11-02T13:14:26.088Z,1.50
2023-11-02T13:16:56.577Z,1.10
2023-11-02T13:19:25.781Z,1.20
2023-11-02T13:21:53.409Z,1.10
2023-11-02T13:24:21.118Z,1.50
2023-11-02T13:26:48.780Z,1.37
2023-11-02T13:29:17.911Z,1.33
2023-11-02T13:31:46.911Z,1.10
2023-11-02T13:34:14.757Z,1.30
2023-11-02T13:36:43.255Z,1.30
2023-11-02T13:39:12.962Z,1.13
2023-11-02T13:41:42.213Z,1.10
2023-11-02T13:44:09.786Z,1.70
2023-11-02T13:46:37.083Z,1.23
2023-11-02T13:49:05.332Z,1.40
2023-11-02T13:51:32.614Z,1.10
2023-11-02T13:53:59.595Z,1.20
2023-11-02T13:56:26.601Z,1.43
2023-11-02T13:58:53.525Z,1.20
2023-11-02T14:01:20.404Z,1.10
2023-11-02T14:03:47.596Z,1.20
2023-11-02T14:06:15.846Z,1.20
2023-11-02T14:08:43.195Z,9.77
2023-11-02T14:11:11.708Z,2.43
2023-11-02T14:13:39.225Z,3.83
2023-11-02T14:16:06.758Z,1.93
2023-11-02T14:18:34.010Z,1.60
2023-11-02T14:21:00.912Z,1.70
2023-11-02T14:23:28.041Z,1.93
2023-11-02T14:25:56.286Z,2.30
2023-11-02T14:28:23.226Z,2.60
2023-11-02T14:30:51.344Z,1.87
2023-11-02T14:33:18.455Z,2.00
2023-11-02T14:35:45.656Z,1.77
2023-11-02T14:38:13.217Z,2.00
2023-11-02T14:40:40.300Z,1.93
2023-11-02T14:43:08.811Z,5.20
2023-11-02T14:45:35.677Z,3.47
2023-11-02T14:48:02.957Z,2.17
2023-11-02T14:50:29.883Z,2.30
2023-11-02T14:52:58.404Z,2.47
2023-11-02T14:55:25.560Z,2.80
2023-11-02T14:57:52.648Z,3.20
2023-11-02T15:00:20.779Z,2.90
2023-11-02T15:02:49.181Z,3.10
2023-11-02T15:05:17.138Z,4.50
2023-11-02T15:07:44.561Z,3.90
2023-11-02T15:10:12.177Z,4.13
2023-11-02T15:12:41.277Z,3.50
2023-11-02T15:15:09.871Z,3.70
2023-11-02T15:17:39.400Z,2.87
2023-11-02T15:20:07.391Z,2.80
2023-11-02T15:22:35.239Z,2.50
2023-11-02T15:25:05.008Z,2.67
2023-11-02T15:27:32.684Z,2.10
2023-11-02T15:29:59.793Z,2.00
2023-11-02T15:32:27.404Z,2.20
2023-11-02T15:34:57.383Z,2.97
2023-11-02T15:37:27.734Z,2.13
2023-11-02T15:39:57.903Z,2.73
2023-11-02T15:42:25.542Z,2.47
2023-11-02T15:44:53.891Z,2.00
2023-11-02T15:47:23.468Z,1.90
2023-11-02T15:49:51.614Z,2.10
2023-11-02T15:52:20.521Z,2.30
2023-11-02T15:54:49.141Z,2.33
2023-11-02T15:57:17.515Z,2.37
2023-11-02T15:59:45.853Z,1.97
2023-11-02T16:02:14.474Z,1.83
2023-11-02T16:04:42.893Z,2.63
2023-11-02T16:07:10.077Z,3.00
2023-11-02T16:09:37.086Z,2.83
2023-11-02T16:12:10.011Z,2.20
2023-11-02T16:14:38.252Z,1.63
2023-11-02T16:17:05.397Z,1.63
2023-11-02T16:19:33.743Z,1.70
2023-11-02T16:22:01.224Z,1.40
2023-11-02T16:24:28.623Z,1.80
2023-11-02T16:26:55.974Z,1.43
2023-11-02T16:29:23.534Z,2.00
2023-11-02T16:31:50.886Z,2.03
2023-11-02T16:34:30.250Z,1.90
2023-11-02T16:37:03.477Z,1.60
2023-11-02T16:39:31.654Z,1.60
2023-11-02T16:41:59.793Z,1.60
2023-11-02T16:44:28.629Z,1.50
2023-11-02T16:47:00.630Z,1.37
2023-11-02T16:49:28.927Z,1.70
2023-11-02T16:51:56.126Z,1.80
2023-11-02T16:54:25.248Z,1.70
2023-11-02T16:56:52.436Z,1.93
2023-11-02T16:59:20.233Z,2.23
2023-11-02T17:01:47.766Z,1.77
2023-11-02T17:04:15.473Z,1.70
2023-11-02T17:06:44.175Z,2.30
2023-11-02T17:09:11.577Z,1.87
2023-11-02T17:11:39.442Z,1.77
2023-11-02T17:14:06.983Z,2.30
2023-11-02T17:16:34.133Z,2.70
2023-11-02T17:19:01.171Z,2.10
2023-11-02T17:21:28.779Z,1.80
2023-11-02T17:23:56.578Z,2.20
2023-11-02T17:26:25.655Z,1.90
2023-11-02T17:28:53.703Z,1.90
2023-11-02T17:31:20.905Z,2.10
2023-11-02T17:33:48.101Z,2.13
2023-11-02T17:36:15.136Z,2.47
2023-11-02T17:38:42.161Z,2.10
2023-11-02T17:41:09.183Z,1.63
2023-11-02T17:43:38.165Z,2.00
2023-11-02T17:46:06.125Z,2.20
2023-11-02T17:48:33.262Z,2.07
2023-11-02T17:51:02.090Z,1.73
2023-11-02T17:53:29.338Z,2.20
2023-11-02T17:55:56.206Z,2.13
2023-11-02T17:58:25.768Z,2.47
2023-11-02T18:00:54.345Z,2.47
2023-11-02T18:03:21.376Z,1.93
2023-11-02T18:05:48.349Z,1.90
2023-11-02T18:08:15.571Z,2.30
2023-11-02T18:10:42.890Z,2.23
2023-11-02T18:13:09.806Z,2.13
2023-11-02T18:15:37.489Z,2.57
2023-11-02T18:18:04.712Z,2.57
2023-11-02T18:20:33.045Z,2.27
2023-11-02T18:22:59.989Z,2.73
2023-11-02T18:25:27.197Z,2.33
2023-11-02T18:27:54.366Z,2.33
2023-11-02T18:30:21.395Z,2.90
2023-11-02T18:32:48.253Z,2.60
2023-11-02T18:35:18.183Z,2.90
2023-11-02T18:37:45.223Z,2.40
2023-11-02T18:40:12.629Z,3.03
2023-11-02T18:42:39.658Z,1.90
2023-11-02T18:45:07.180Z,3.07
2023-11-02T18:47:35.236Z,2.67
2023-11-02T18:50:02.470Z,2.60
2023-11-02T18:52:29.449Z,4.00
2023-11-02T18:54:58.259Z,3.47
2023-11-02T18:57:26.116Z,3.70
2023-11-02T18:59:52.960Z,2.93
2023-11-02T19:02:20.976Z,2.50
2023-11-02T19:04:48.913Z,2.67
2023-11-02T19:07:16.388Z,2.47
2023-11-02T19:09:47.194Z,3.33
2023-11-02T19:12:16.022Z,3.20
2023-11-02T19:14:44.064Z,3.20
2023-11-02T19:17:11.130Z,2.37
2023-11-02T19:19:40.701Z,2.93
2023-11-02T19:22:08.068Z,2.90
2023-11-02T19:24:34.930Z,3.03
2023-11-02T19:27:01.895Z,3.03
2023-11-02T19:29:29.061Z,2.90
2023-11-02T19:31:56.523Z,2.97
2023-11-02T19:34:25.788Z,3.47
2023-11-02T19:36:53.843Z,5.20
2023-11-02T19:39:20.992Z,6.57
2023-11-02T19:41:49.874Z,4.67
2023-11-02T19:44:17.237Z,4.47
2023-11-02T19:46:49.713Z,3.87
2023-11-02T19:49:17.522Z,4.07
2023-11-02T19:51:44.930Z,3.23
2023-11-02T19:54:13.362Z,2.83
2023-11-02T19:56:41.131Z,2.60
2023-11-02T19:59:11.027Z,2.60
2023-11-02T20:01:39.306Z,2.67
2023-11-02T20:04:07.706Z,2.50
2023-11-02T20:06:35.883Z,2.40
2023-11-02T20:09:05.560Z,2.70
2023-11-02T20:11:35.319Z,2.50
2023-11-02T20:14:02.200Z,2.60
2023-11-02T20:16:29.157Z,2.60
2023-11-02T20:18:56.143Z,2.60
2023-11-02T20:21:25.284Z,2.57
2023-11-02T20:23:53.110Z,2.60
2023-11-02T20:26:20.602Z,3.00
2023-11-02T20:28:47.546Z,2.63
2023-11-02T20:31:14.819Z,2.20
2023-11-02T20:33:43.177Z,2.33
2023-11-02T20:36:10.618Z,2.30
2023-11-02T20:38:37.516Z,2.97
2023-11-02T20:41:05.843Z,2.20
2023-11-02T20:43:33.190Z,2.77
2023-11-02T20:46:02.419Z,2.67
2023-11-02T20:48:34.460Z,2.80
2023-11-02T20:51:01.511Z,2.33
2023-11-02T20:53:28.368Z,2.10
2023-11-02T20:55:55.180Z,2.20
2023-11-02T20:58:22.506Z,2.90
2023-11-02T21:00:53.374Z,2.30
2023-11-02T21:03:23.840Z,2.20
2023-11-02T21:05:54.044Z,4.10
2023-11-02T21:08:21.008Z,2.60
2023-11-02T21:10:49.334Z,5.67
2023-11-02T21:13:18.777Z,5.30
2023-11-02T21:15:46.100Z,4.50
2023-11-02T21:18:13.277Z,4.10
2023-11-02T21:20:40.288Z,3.50
2023-11-02T21:23:07.302Z,3.77
2023-11-02T21:25:34.545Z,3.73
2023-11-02T21:28:02.141Z,3.90
2023-11-02T21:30:29.543Z,3.67
2023-11-02T21:32:58.655Z,3.17
2023-11-02T21:35:25.958Z,2.87
2023-11-02T21:37:53.888Z,3.83
2023-11-02T21:40:21.263Z,2.90
2023-11-02T21:42:48.563Z,4.00
2023-11-02T21:45:17.200Z,4.67
2023-11-02T21:47:44.482Z,2.70
2023-11-02T21:50:12.205Z,4.10
2023-11-02T21:52:40.037Z,4.17
2023-11-02T21:55:07.396Z,4.23
2023-11-02T21:57:34.657Z,4.23
2023-11-02T22:00:01.738Z,5.03
2023-11-02T22:02:28.540Z,4.80
2023-11-02T22:04:56.969Z,7.40
2023-11-02T22:07:24.084Z,8.27
2023-11-02T22:09:51.700Z,8.07
2023-11-02T22:12:18.656Z,6.03
2023-11-02T22:14:45.952Z,7.23
2023-11-02T22:17:12.910Z,7.10
2023-11-02T22:19:44.899Z,4.90
2023-11-02T22:22:12.733Z,4.13
2023-11-02T22:24:39.768Z,3.80
2023-11-02T22:27:06.925Z,3.67
2023-11-02T22:29:33.792Z,3.80
2023-11-02T22:32:01.800Z,3.60
2023-11-02T22:34:28.929Z,3.53
2023-11-02T22:36:57.805Z,3.80
2023-11-02T22:39:25.359Z,3.67
2023-11-02T22:41:52.271Z,3.47
2023-11-02T22:44:20.321Z,4.70
2023-11-02T22:46:47.265Z,5.43
2023-11-02T22:49:14.241Z,6.17
2023-11-02T22:51:41.201Z,7.57
2023-11-02T22:54:08.930Z,4.50
2023-11-02T22:56:36.085Z,3.87
2023-11-02T22:59:02.961Z,4.10
2023-11-02T23:01:29.766Z,3.73
2023-11-02T23:03:56.904Z,4.63
2023-11-02T23:06:24.486Z,4.00
2023-11-02T23:08:51.996Z,5.53
2023-11-02T23:11:19.394Z,5.27
2023-11-02T23:13:47.193Z,5.77
2023-11-02T23:16:15.196Z,5.07
2023-11-02T23:18:43.852Z,4.77
2023-11-02T23:21:12.012Z,5.10
2023-11-02T23:23:39.029Z,5.23
2023-11-02T23:26:07.111Z,4.80
2023-11-02T23:28:34.985Z,4.70
2023-11-02T23:31:02.871Z,4.80
2023-11-02T23:33:30.173Z,4.27
2023-11-02T23:35:57.084Z,4.73
2023-11-02T23:38:25.824Z,5.07
2023-11-02T23:40:53.110Z,4.60
2023-11-02T23:43:20.229Z,4.17
2023-11-02T23:45:49.143Z,4.53
2023-11-02T23:48:16.462Z,4.43
2023-11-02T23:50:44.303Z,3.80
2023-11-02T23:53:12.528Z,4.00
2023-11-02T23:55:40.612Z,4.03
2023-11-02T23:58:08.010Z,3.60
